createdAt,value
2023-07-28T00:01:10.080Z,2.00
2023-07-28T00:03:38.415Z,1.90
2023-07-28T00:06:06.697Z,2.20
2023-07-28T00:08:36.323Z,2.22
2023-07-28T00:11:04.607Z,1.90
2023-07-28T00:13:33.122Z,1.90
2023-07-28T00:16:01.303Z,2.15
2023-07-28T00:18:29.507Z,1.90
2023-07-28T00:20:57.714Z,1.73
2023-07-28T00:23:26.426Z,2.00
2023-07-28T00:25:56.247Z,1.85
2023-07-28T00:28:24.458Z,1.98
2023-07-28T00:30:52.762Z,1.80
2023-07-28T00:33:21.278Z,1.90
2023-07-28T00:35:49.476Z,1.80
2023-07-28T00:38:17.685Z,1.65
2023-07-28T00:40:45.851Z,1.80
2023-07-28T00:43:15.528Z,1.75
2023-07-28T00:45:43.870Z,1.90
2023-07-28T00:48:14.794Z,1.85
2023-07-28T00:50:44.333Z,1.90
2023-07-28T00:53:12.752Z,1.80
2023-07-28T00:55:41.145Z,1.98
2023-07-28T00:58:10.573Z,2.03
2023-07-28T01:00:40.278Z,1.90
2023-07-28T01:03:08.859Z,1.77
2023-07-28T01:05:46.017Z,1.63
2023-07-28T01:08:22.412Z,1.92
2023-07-28T01:10:51.009Z,1.67
2023-07-28T01:13:19.163Z,1.90
2023-07-28T01:15:49.765Z,1.90
2023-07-28T01:18:18.151Z,1.80
2023-07-28T01:20:49.018Z,1.60
2023-07-28T01:23:21.834Z,1.77
2023-07-28T01:25:57.212Z,1.80
2023-07-28T01:28:27.473Z,2.05
2023-07-28T01:34:49.725Z,1.80
2023-07-28T01:37:18.040Z,1.85
2023-07-28T01:39:46.293Z,1.70
2023-07-28T01:42:14.437Z,2.15
2023-07-28T01:44:44.150Z,1.77
2023-07-28T01:47:12.459Z,1.80
2023-07-28T01:49:40.594Z,1.90
2023-07-28T01:52:09.253Z,1.73
2023-07-28T01:54:37.442Z,1.90
2023-07-28T01:57:06.159Z,1.80
2023-07-28T01:59:35.653Z,1.80
2023-07-28T02:02:05.376Z,1.80
2023-07-28T02:04:33.611Z,1.80
2023-07-28T02:07:01.921Z,1.85
2023-07-28T02:09:30.206Z,1.70
2023-07-28T02:11:58.561Z,1.92
2023-07-28T02:14:26.903Z,1.80
2023-07-28T02:16:55.169Z,1.70
2023-07-28T02:19:24.938Z,1.90
2023-07-28T02:21:53.145Z,1.75
2023-07-28T02:24:21.439Z,1.80
2023-07-28T02:26:49.690Z,1.80
2023-07-28T02:29:18.032Z,1.73
2023-07-28T02:31:46.331Z,1.80
2023-07-28T02:34:14.645Z,1.67
2023-07-28T02:36:44.288Z,1.80
2023-07-28T02:39:12.508Z,1.45
2023-07-28T02:41:40.858Z,1.70
2023-07-28T02:44:09.395Z,1.98
2023-07-28T02:46:38.792Z,1.83
2023-07-28T02:49:07.811Z,1.85
2023-07-28T02:51:37.236Z,2.00
2023-07-28T02:54:07.537Z,2.00
2023-07-28T02:56:38.895Z,2.17
2023-07-28T02:59:07.902Z,1.60
2023-07-28T03:01:36.718Z,1.77
2023-07-28T03:04:05.949Z,1.90
2023-07-28T03:06:34.992Z,1.70
2023-07-28T03:09:03.660Z,1.90
2023-07-28T03:11:35.180Z,2.22
2023-07-28T03:14:05.452Z,1.80
2023-07-28T03:16:33.920Z,1.77
2023-07-28T03:19:02.379Z,1.80
2023-07-28T03:21:32.603Z,2.08
2023-07-28T03:24:01.814Z,1.75
2023-07-28T03:26:30.129Z,2.42
2023-07-28T03:29:00.458Z,1.90
2023-07-28T03:31:34.243Z,1.75
2023-07-28T03:34:05.863Z,1.60
2023-07-28T03:36:34.322Z,1.77
2023-07-28T03:39:03.727Z,1.83
2023-07-28T03:41:55.599Z,1.90
2023-07-28T03:44:27.027Z,1.83
2023-07-28T03:47:03.996Z,1.90
2023-07-28T03:49:37.389Z,2.10
2023-07-28T03:52:13.972Z,2.03
2023-07-28T03:54:53.383Z,2.08
2023-07-28T03:57:21.900Z,1.88
2023-07-28T03:59:51.413Z,1.90
2023-07-28T04:02:19.628Z,1.98
2023-07-28T04:04:47.822Z,1.80
2023-07-28T04:07:16.220Z,1.95
2023-07-28T04:09:44.510Z,2.00
2023-07-28T04:12:12.684Z,2.10
2023-07-28T04:14:42.029Z,2.10
2023-07-28T04:17:12.742Z,2.40
2023-07-28T04:19:40.996Z,1.83
2023-07-28T04:22:09.742Z,1.80
2023-07-28T04:24:37.832Z,1.75
2023-07-28T04:27:06.670Z,2.28
2023-07-28T04:29:36.022Z,2.10
2023-07-28T04:32:04.169Z,1.92
2023-07-28T04:34:35.198Z,1.80
2023-07-28T04:37:03.608Z,2.10
2023-07-28T04:39:31.823Z,2.13
2023-07-28T04:42:00.225Z,1.90
2023-07-28T04:44:28.528Z,2.00
2023-07-28T04:46:56.798Z,1.85
2023-07-28T04:49:25.085Z,1.80
2023-07-28T04:51:55.483Z,1.75
2023-07-28T04:54:23.656Z,1.98
2023-07-28T04:56:54.200Z,2.08
2023-07-28T04:59:22.516Z,2.47
2023-07-28T05:01:50.685Z,2.08
2023-07-28T05:04:19.162Z,2.10
2023-07-28T05:06:56.858Z,1.73
2023-07-28T05:09:29.340Z,1.90
2023-07-28T05:11:57.807Z,1.95
2023-07-28T05:14:26.022Z,2.03
2023-07-28T05:16:54.346Z,1.75
2023-07-28T05:19:22.542Z,1.90
2023-07-28T05:22:24.617Z,2.00
2023-07-28T05:25:02.049Z,2.20
2023-07-28T05:27:30.328Z,1.98
2023-07-28T05:29:58.471Z,1.98
2023-07-28T05:32:26.800Z,1.80
2023-07-28T05:34:55.246Z,1.73
2023-07-28T05:37:28.197Z,1.88
2023-07-28T05:39:57.941Z,2.10
2023-07-28T05:42:26.442Z,1.90
2023-07-28T05:44:58.666Z,1.80
2023-07-28T05:48:22.190Z,2.08
2023-07-28T05:50:53.860Z,2.10
2023-07-28T05:53:48.033Z,2.05
2023-07-28T05:56:17.653Z,2.00
2023-07-28T05:58:46.369Z,1.80
2023-07-28T06:01:17.606Z,2.00
2023-07-28T06:03:46.378Z,1.83
2023-07-28T06:06:25.425Z,2.05
2023-07-28T06:12:24.427Z,2.20
2023-07-28T06:14:52.903Z,2.00
2023-07-28T06:17:21.453Z,2.00
2023-07-28T06:19:49.807Z,1.90
2023-07-28T06:22:18.066Z,2.08
2023-07-28T06:24:46.607Z,2.10
2023-07-28T06:27:31.090Z,3.20
2023-07-28T06:30:01.020Z,2.40
2023-07-28T06:32:30.955Z,2.20
2023-07-28T06:35:00.649Z,1.88
2023-07-28T06:37:29.049Z,2.08
2023-07-28T06:39:57.407Z,2.00
2023-07-28T06:42:26.040Z,2.17
2023-07-28T06:44:58.083Z,2.00
2023-07-28T06:47:26.513Z,2.13
2023-07-28T06:49:54.823Z,1.95
2023-07-28T06:52:23.488Z,2.15
2023-07-28T06:54:51.727Z,1.90
2023-07-28T06:57:20.024Z,2.15
2023-07-28T06:59:48.460Z,2.00
2023-07-28T07:02:19.464Z,1.88
2023-07-28T07:04:47.853Z,1.85
2023-07-28T07:07:19.135Z,1.75
2023-07-28T07:09:47.580Z,2.00
2023-07-28T07:12:16.978Z,1.90
2023-07-28T07:14:46.150Z,1.92
2023-07-28T07:17:14.514Z,2.15
2023-07-28T07:19:46.951Z,2.10
2023-07-28T07:22:23.716Z,1.70
2023-07-28T07:28:59.818Z,1.80
2023-07-28T07:31:31.366Z,1.92
2023-07-28T07:34:01.070Z,2.10
2023-07-28T07:36:30.899Z,2.17
2023-07-28T07:39:03.813Z,1.92
2023-07-28T07:41:36.554Z,2.00
2023-07-28T07:44:05.475Z,2.22
2023-07-28T07:46:33.874Z,2.10
2023-07-28T07:49:02.056Z,1.90
2023-07-28T07:51:31.730Z,1.98
2023-07-28T07:54:05.429Z,2.00
2023-07-28T07:56:33.781Z,1.83
2023-07-28T07:59:04.970Z,1.90
2023-07-28T08:01:33.483Z,2.20
2023-07-28T08:04:02.132Z,2.08
2023-07-28T08:06:34.880Z,2.13
2023-07-28T08:09:19.873Z,2.10
2023-07-28T08:11:52.792Z,1.83
2023-07-28T08:14:24.886Z,2.20
2023-07-28T08:16:53.246Z,2.03
2023-07-28T08:19:21.675Z,2.17
2023-07-28T08:21:52.300Z,1.90
2023-07-28T08:24:29.596Z,2.00
2023-07-28T08:26:59.748Z,1.60
2023-07-28T08:29:28.204Z,2.00
2023-07-28T08:31:57.160Z,1.90
2023-07-28T08:34:27.139Z,1.80
2023-07-28T08:37:01.204Z,2.00
2023-07-28T08:39:29.577Z,2.08
2023-07-28T08:42:01.921Z,2.28
2023-07-28T08:44:32.628Z,2.00
2023-07-28T08:47:02.094Z,2.10
2023-07-28T08:49:32.605Z,2.03
2023-07-28T08:52:04.677Z,1.95
2023-07-28T08:54:33.114Z,1.80
2023-07-28T08:57:01.294Z,2.00
2023-07-28T08:59:31.125Z,2.28
2023-07-28T09:02:00.778Z,2.10
2023-07-28T09:04:30.870Z,1.92
2023-07-28T09:06:59.168Z,2.00
2023-07-28T09:09:35.045Z,2.00
2023-07-28T09:12:03.289Z,2.20
2023-07-28T09:14:32.568Z,2.15
2023-07-28T09:17:09.183Z,1.70
2023-07-28T09:19:37.570Z,1.90
2023-07-28T09:22:07.757Z,2.20
2023-07-28T09:24:37.821Z,2.72
2023-07-28T09:27:06.232Z,2.20
2023-07-28T09:29:34.593Z,2.30
2023-07-28T09:32:06.895Z,2.10
2023-07-28T09:34:35.205Z,2.20
2023-07-28T09:37:03.457Z,2.10
2023-07-28T09:42:16.615Z,2.33
2023-07-28T09:44:44.891Z,2.13
2023-07-28T09:47:13.234Z,1.80
2023-07-28T09:49:54.586Z,2.13
2023-07-28T09:52:33.194Z,1.95
2023-07-28T09:55:05.157Z,2.00
2023-07-28T09:57:40.908Z,2.10
2023-07-28T10:00:13.898Z,2.00
2023-07-28T10:02:43.021Z,2.08
2023-07-28T10:05:11.831Z,2.20
2023-07-28T10:07:43.965Z,2.10
2023-07-28T10:10:15.031Z,2.00
2023-07-28T10:12:47.909Z,2.00
2023-07-28T10:15:18.034Z,1.85
2023-07-28T10:17:49.046Z,2.20
2023-07-28T10:20:35.879Z,1.98
2023-07-28T10:23:05.920Z,2.13
2023-07-28T10:25:36.579Z,1.92
2023-07-28T10:28:07.768Z,1.85
2023-07-28T10:30:52.928Z,2.08
2023-07-28T10:33:30.123Z,2.00
2023-07-28T10:36:00.383Z,2.42
2023-07-28T10:38:37.335Z,2.30
2023-07-28T10:41:09.968Z,2.30
2023-07-28T10:43:40.681Z,2.00
2023-07-28T10:46:11.621Z,2.15
2023-07-28T10:48:44.771Z,1.75
2023-07-28T10:51:13.816Z,1.90
2023-07-28T10:53:42.014Z,2.15
2023-07-28T10:56:12.788Z,2.28
2023-07-28T10:58:42.573Z,2.33
2023-07-28T11:01:12.528Z,2.08
2023-07-28T11:03:42.523Z,1.80
2023-07-28T11:06:10.690Z,1.90
2023-07-28T11:08:38.888Z,2.00
2023-07-28T11:11:08.307Z,2.20
2023-07-28T11:13:41.460Z,2.20
2023-07-28T11:16:12.240Z,1.90
2023-07-28T11:18:45.236Z,2.05
2023-07-28T11:21:16.469Z,2.00
2023-07-28T11:23:48.175Z,1.77
2023-07-28T11:26:18.437Z,2.28
2023-07-28T11:28:48.563Z,2.28
2023-07-28T11:31:18.273Z,2.45
2023-07-28T11:33:46.628Z,2.22
2023-07-28T11:36:24.555Z,2.15
2023-07-28T11:38:53.817Z,2.10
2023-07-28T11:41:23.924Z,2.13
2023-07-28T11:43:53.248Z,1.80
2023-07-28T11:46:40.317Z,2.00
2023-07-28T11:49:12.463Z,2.35
2023-07-28T11:51:44.525Z,2.45
2023-07-28T11:54:16.307Z,1.92
2023-07-28T11:56:45.539Z,2.08
2023-07-28T11:59:14.050Z,2.35
2023-07-28T12:07:12.751Z,2.10
2023-07-28T12:10:03.449Z,2.30
2023-07-28T12:20:39.939Z,2.50
2023-07-28T12:25:40.917Z,2.20
2023-07-28T12:28:18.948Z,2.20
2023-07-28T12:30:50.332Z,2.25
2023-07-28T12:33:22.442Z,2.05
2023-07-28T12:35:51.775Z,2.10
2023-07-28T12:48:48.208Z,2.00
2023-07-28T12:51:30.758Z,2.10
2023-07-28T12:53:59.361Z,2.30
2023-07-28T13:01:35.721Z,2.20
2023-07-28T13:04:05.853Z,2.20
2023-07-28T13:06:34.278Z,2.10
2023-07-28T13:14:09.598Z,2.10
2023-07-28T13:16:39.220Z,2.00
2023-07-28T13:19:09.068Z,2.13
2023-07-28T13:21:37.640Z,2.28
2023-07-28T13:24:08.367Z,2.28
2023-07-28T13:26:37.975Z,2.28
2023-07-28T13:29:08.346Z,2.10
2023-07-28T13:31:36.999Z,2.55
2023-07-28T13:34:05.579Z,2.17
2023-07-28T13:36:35.242Z,3.10
2023-07-28T13:39:03.404Z,2.10
2023-07-28T13:41:31.746Z,2.33
2023-07-28T13:44:03.112Z,2.00
2023-07-28T13:46:31.665Z,2.33
2023-07-28T13:49:07.952Z,2.10
2023-07-28T13:57:01.193Z,2.28
2023-07-28T14:00:12.409Z,2.20
2023-07-28T14:05:43.700Z,2.30
2023-07-28T14:07:02.926Z,2.25
2023-07-28T14:09:31.133Z,2.20
2023-07-28T14:11:59.312Z,2.10
2023-07-28T14:14:27.740Z,2.30
2023-07-28T14:16:56.100Z,2.30
2023-07-28T14:19:24.503Z,2.10
2023-07-28T14:21:52.742Z,2.30
2023-07-28T14:24:22.713Z,2.72
2023-07-28T14:26:50.970Z,2.10
2023-07-28T14:29:19.240Z,2.03
2023-07-28T14:31:47.739Z,2.75
2023-07-28T14:34:15.878Z,2.10
2023-07-28T14:36:44.394Z,2.25
2023-07-28T14:39:12.649Z,2.20
2023-07-28T14:41:42.384Z,2.20
2023-07-28T14:44:10.698Z,2.05
2023-07-28T14:46:38.838Z,2.30
2023-07-28T14:49:06.982Z,2.40
2023-07-28T14:51:35.716Z,2.22
2023-07-28T14:54:12.424Z,1.95
2023-07-28T14:56:42.296Z,2.20
2023-07-28T14:59:11.491Z,2.22
2023-07-28T15:01:40.856Z,2.05
2023-07-28T15:04:09.015Z,2.20
2023-07-28T15:06:37.898Z,2.03
2023-07-28T15:09:06.238Z,2.08
2023-07-28T15:11:34.951Z,2.50
2023-07-28T15:14:05.733Z,2.30
2023-07-28T15:16:34.111Z,2.25
2023-07-28T15:19:02.693Z,2.33
2023-07-28T15:21:30.926Z,2.20
2023-07-28T15:24:00.184Z,2.17
2023-07-28T15:26:28.714Z,2.20
2023-07-28T15:28:58.996Z,2.05
2023-07-28T15:31:32.068Z,2.13
2023-07-28T15:34:00.299Z,1.90
2023-07-28T15:36:29.583Z,2.33
2023-07-28T15:38:57.858Z,2.30
2023-07-28T15:42:20.540Z,2.35
2023-07-28T15:44:50.799Z,2.30
2023-07-28T15:47:21.136Z,2.08
2023-07-28T15:49:51.862Z,2.67
2023-07-28T15:52:28.080Z,2.20
2023-07-28T15:54:56.718Z,2.10
2023-07-28T15:57:27.799Z,2.70
2023-07-28T15:59:55.963Z,2.42
2023-07-28T16:02:25.843Z,2.40
2023-07-28T16:04:54.204Z,2.42
2023-07-28T16:07:23.936Z,2.25
2023-07-28T16:09:52.475Z,2.30
2023-07-28T16:12:20.772Z,2.20
2023-07-28T16:14:49.013Z,2.10
2023-07-28T16:17:17.413Z,2.20
2023-07-28T16:19:48.238Z,2.10
2023-07-28T16:22:18.860Z,2.65
2023-07-28T16:24:48.035Z,2.70
2023-07-28T16:27:19.299Z,2.75
2023-07-28T16:29:47.470Z,2.30
2023-07-28T16:32:16.791Z,2.30
2023-07-28T16:34:46.717Z,2.42
2023-07-28T16:37:15.969Z,2.60
2023-07-28T16:39:46.941Z,2.30
2023-07-28T16:42:15.472Z,2.40
2023-07-28T16:44:44.013Z,2.58
2023-07-28T16:47:12.678Z,2.70
2023-07-28T16:49:46.019Z,2.40
2023-07-28T16:52:17.294Z,2.63
2023-07-28T16:54:45.630Z,2.85
2023-07-28T16:57:15.331Z,2.60
2023-07-28T16:59:43.745Z,2.20
2023-07-28T17:02:12.449Z,2.30
2023-07-28T17:04:40.980Z,2.80
2023-07-28T17:07:09.199Z,3.40
2023-07-28T17:09:42.013Z,4.55
2023-07-28T17:12:10.853Z,3.13
2023-07-28T17:14:39.228Z,3.70
2023-07-28T17:17:07.964Z,3.78
2023-07-28T17:19:36.344Z,3.33
2023-07-28T17:22:05.286Z,2.70
2023-07-28T17:24:34.108Z,3.45
2023-07-28T17:27:04.278Z,3.38
2023-07-28T17:29:35.822Z,3.10
2023-07-28T17:32:04.547Z,2.60
2023-07-28T17:34:32.937Z,2.60
2023-07-28T17:37:01.176Z,2.70
2023-07-28T17:39:30.068Z,2.60
2023-07-28T17:41:58.375Z,2.80
2023-07-28T17:44:28.259Z,2.50
2023-07-28T17:46:57.424Z,2.60
2023-07-28T17:49:28.415Z,2.40
2023-07-28T17:51:58.960Z,3.05
2023-07-28T17:54:33.491Z,2.50
2023-07-28T17:57:01.792Z,2.57
2023-07-28T17:59:32.086Z,2.75
2023-07-28T18:02:00.515Z,2.80
2023-07-28T18:04:29.350Z,2.83
2023-07-28T18:06:59.744Z,2.67
2023-07-28T18:09:28.475Z,2.67
2023-07-28T18:11:57.132Z,2.95
2023-07-28T18:14:27.317Z,3.20
2023-07-28T18:16:57.324Z,3.83
2023-07-28T18:19:28.367Z,4.10
2023-07-28T18:21:57.045Z,4.10
2023-07-28T18:24:27.023Z,3.60
2023-07-28T18:26:55.954Z,3.40
2023-07-28T18:29:27.493Z,3.30
2023-07-28T18:31:58.434Z,3.47
2023-07-28T18:34:27.944Z,3.15
2023-07-28T18:36:58.393Z,3.47
2023-07-28T18:39:28.403Z,2.20
2023-07-28T18:41:57.590Z,2.30
2023-07-28T18:44:26.680Z,2.83
2023-07-28T18:46:56.962Z,2.50
2023-07-28T18:49:30.486Z,2.45
2023-07-28T18:52:01.925Z,2.25
2023-07-28T18:54:30.531Z,2.53
2023-07-28T18:57:00.693Z,2.35
2023-07-28T18:59:30.249Z,2.15
2023-07-28T19:02:01.343Z,2.67
2023-07-28T19:04:31.690Z,2.50
2023-07-28T19:07:01.046Z,2.50
2023-07-28T19:09:30.908Z,2.58
2023-07-28T19:12:00.239Z,2.60
2023-07-28T19:14:31.255Z,2.63
2023-07-28T19:17:03.819Z,2.67
2023-07-28T19:19:33.283Z,2.63
2023-07-28T19:25:14.762Z,2.75
2023-07-28T19:27:46.903Z,4.75
2023-07-28T19:35:13.947Z,3.35
2023-07-28T19:37:45.326Z,3.13
2023-07-28T19:40:28.652Z,3.00
2023-07-28T19:43:17.648Z,4.45
2023-07-28T19:45:47.765Z,3.22
2023-07-28T19:48:17.675Z,4.10
2023-07-28T19:50:52.818Z,9.75
2023-07-28T19:53:23.665Z,10.02
2023-07-28T19:58:59.827Z,8.20
2023-07-28T20:01:31.686Z,6.68
2023-07-28T20:04:01.512Z,4.70
2023-07-28T20:06:30.418Z,3.28
2023-07-28T20:09:06.084Z,2.80
2023-07-28T20:11:43.787Z,2.78
2023-07-28T20:14:20.834Z,2.90
2023-07-28T20:17:13.954Z,2.80
2023-07-28T20:19:43.350Z,3.20
2023-07-28T20:22:37.343Z,4.15
2023-07-28T20:25:10.409Z,4.15
2023-07-28T20:27:45.676Z,4.93
2023-07-28T20:33:09.352Z,4.20
2023-07-28T20:35:42.390Z,4.15
2023-07-28T20:38:40.238Z,3.10
2023-07-28T20:41:23.365Z,2.80
2023-07-28T20:44:33.629Z,2.65
2023-07-28T20:48:36.024Z,2.80
2023-07-28T20:51:07.836Z,2.95
2023-07-28T20:54:24.619Z,2.80
2023-07-28T20:56:54.962Z,2.85
2023-07-28T21:00:12.740Z,2.55
2023-07-28T21:02:41.058Z,2.30
2023-07-28T21:05:09.876Z,2.38
2023-07-28T21:07:44.665Z,2.58
2023-07-28T21:10:14.487Z,2.70
2023-07-28T21:12:44.813Z,2.45
2023-07-28T21:15:16.073Z,2.72
2023-07-28T21:17:44.579Z,2.45
2023-07-28T21:20:15.268Z,2.80
2023-07-28T21:22:46.389Z,2.83
2023-07-28T21:25:14.915Z,2.67
2023-07-28T21:27:44.679Z,2.40
2023-07-28T21:30:13.144Z,2.70
2023-07-28T21:32:41.514Z,2.63
2023-07-28T21:35:10.991Z,2.40
2023-07-28T21:37:43.139Z,2.67
2023-07-28T21:40:16.754Z,2.70
2023-07-28T21:42:46.726Z,2.95
2023-07-28T21:45:15.571Z,2.50
2023-07-28T21:47:45.222Z,2.90
2023-07-28T21:50:16.717Z,2.67
2023-07-28T21:52:45.645Z,2.67
2023-07-28T21:55:14.892Z,2.90
2023-07-28T21:57:47.366Z,2.50
2023-07-28T22:00:17.148Z,2.60
2023-07-28T22:02:47.671Z,2.67
2023-07-28T22:05:20.710Z,2.75
2023-07-28T22:07:52.388Z,2.80
2023-07-28T22:10:22.856Z,2.90
2023-07-28T22:12:51.295Z,2.67
2023-07-28T22:15:21.177Z,3.35
2023-07-28T22:17:49.420Z,2.88
2023-07-28T22:20:17.621Z,2.65
2023-07-28T22:22:46.278Z,2.63
2023-07-28T22:25:14.739Z,2.40
2023-07-28T22:27:43.097Z,2.67
2023-07-28T22:30:13.063Z,2.50
2023-07-28T22:32:42.614Z,3.13
2023-07-28T22:35:10.950Z,2.70
2023-07-28T22:37:39.383Z,2.50
2023-07-28T22:42:38.202Z,2.50
2023-07-28T22:45:07.453Z,2.50
2023-07-28T22:47:36.150Z,2.72
2023-07-28T22:50:07.392Z,2.83
2023-07-28T22:52:35.689Z,2.38
2023-07-28T22:55:15.319Z,2.70
2023-07-28T22:58:01.702Z,2.42
2023-07-28T23:00:49.465Z,2.70
2023-07-28T23:03:19.340Z,2.90
2023-07-28T23:05:49.030Z,2.78
2023-07-28T23:08:17.484Z,2.70
2023-07-28T23:10:54.534Z,2.63
2023-07-28T23:13:23.699Z,2.75
2023-07-28T23:15:53.282Z,3.03
2023-07-28T23:18:21.584Z,2.90
2023-07-28T23:20:52.341Z,3.03
2023-07-28T23:23:20.469Z,2.75
2023-07-28T23:25:48.819Z,3.10
2023-07-28T23:28:17.195Z,3.08
2023-07-28T23:30:46.652Z,2.70
2023-07-28T23:33:25.004Z,2.88
2023-07-28T23:36:12.315Z,2.55
2023-07-28T23:38:47.804Z,2.63
2023-07-28T23:41:16.618Z,2.70
2023-07-28T23:43:45.107Z,2.97
2023-07-28T23:46:15.518Z,2.78
2023-07-28T23:48:43.761Z,2.90
2023-07-28T23:51:14.515Z,2.90
2023-07-28T23:53:43.834Z,2.83
2023-07-28T23:56:12.385Z,3.08
2023-07-28T23:58:40.525Z,2.83
